Time;durP1;ratioP1;P1;durP2;ratioP2;P2;SDS_P1;SDS_P2;PMS_P1;PMS_P2;Temp;Humidity;BMP_temperature;BMP_pressure;BME280_temperature;BME280_humidity;BME280_pressure;Samples;Min_cycle;Max_cycle;Signal;HPM_P1;HPM_P2
2022/11/29 00:00:57;;;;;;;136.30;26.63;;;8.70;99.90;;;;;;5053786;28;20368;-66
2022/11/29 00:03:23;;;;;;;109.60;24.95;;;8.80;99.90;;;;;;5053847;28;20037;-67
2022/11/29 00:05:50;;;;;;;89.22;25.83;;;8.70;99.90;;;;;;5044030;28;20042;-66
2022/11/29 00:08:16;;;;;;;125.45;26.02;;;8.70;99.90;;;;;;5035459;28;20037;-67
2022/11/29 00:10:42;;;;;;;104.47;25.67;;;8.60;99.90;;;;;;5052340;28;20090;-66
2022/11/29 00:13:07;;;;;;;127.28;26.75;;;8.60;99.90;;;;;;5039735;28;20042;-66
2022/11/29 00:15:37;;;;;;;121.40;26.27;;;8.70;99.90;;;;;;5053524;28;20495;-66
2022/11/29 00:18:04;;;;;;;109.63;24.15;;;;;;;;;;5053641;28;20029;-65
2022/11/29 00:20:30;;;;;;;81.75;22.85;;;;;;;;;;5034952;28;20065;-65
2022/11/29 00:22:55;;;;;;;106.72;24.80;;;8.60;99.90;;;;;;5032285;28;20098;-66
2022/11/29 00:25:21;;;;;;;222.10;32.13;;;8.70;99.90;;;;;;5031435;28;20045;-66
2022/11/29 00:27:46;;;;;;;97.80;22.33;;;8.60;99.90;;;;;;5041543;28;20115;-67
2022/11/29 00:30:12;;;;;;;106.97;23.90;;;8.60;99.90;;;;;;5051820;28;20076;-66
2022/11/29 00:32:38;;;;;;;150.77;25.27;;;8.50;99.90;;;;;;5052067;28;20491;-65
2022/11/29 00:35:04;;;;;;;152.32;24.90;;;8.60;99.90;;;;;;5040659;28;20048;-66
2022/11/29 00:37:29;;;;;;;167.02;24.20;;;8.60;99.90;;;;;;5033223;28;20048;-66
2022/11/29 00:39:55;;;;;;;109.55;21.02;;;8.70;99.90;;;;;;5033268;28;20033;-66
2022/11/29 00:42:21;;;;;;;136.25;21.27;;;8.60;99.90;;;;;;5033048;28;20434;-66
2022/11/29 00:44:46;;;;;;;137.57;22.92;;;8.50;99.90;;;;;;5033394;28;20037;-66
2022/11/29 00:47:12;;;;;;;127.88;21.38;;;8.50;99.90;;;;;;5045922;28;20063;-66
2022/11/29 00:49:37;;;;;;;153.10;21.10;;;8.40;99.90;;;;;;5037591;28;20053;-66
2022/11/29 00:52:03;;;;;;;138.85;20.00;;;8.50;99.90;;;;;;5053132;28;20066;-67
2022/11/29 00:54:29;;;;;;;156.80;19.42;;;8.30;99.90;;;;;;5038783;28;20484;-65
2022/11/29 00:56:54;;;;;;;140.15;19.33;;;8.30;99.90;;;;;;5031590;28;20044;-66
2022/11/29 00:59:20;;;;;;;131.80;20.55;;;8.30;99.90;;;;;;5032995;28;20120;-67
2022/11/29 01:01:45;;;;;;;102.18;18.33;;;8.30;99.90;;;;;;5037163;28;20052;-66
2022/11/29 01:04:11;;;;;;;122.00;18.45;;;8.20;99.90;;;;;;5051658;28;20406;-66
2022/11/29 01:06:37;;;;;;;133.90;20.23;;;8.20;99.90;;;;;;5038729;28;20034;-66
2022/11/29 01:09:03;;;;;;;163.98;21.58;;;8.40;99.90;;;;;;5051043;28;20094;-66
2022/11/29 01:11:30;;;;;;;110.32;17.60;;;;;;;;;;5037177;28;20045;-65
2022/11/29 01:13:58;;;;;;;136.85;18.33;;;8.30;99.90;;;;;;5037982;28;20045;-66
2022/11/29 01:16:25;;;;;;;123.22;18.27;;;8.20;99.90;;;;;;5051375;28;20471;-66
2022/11/29 01:18:51;;;;;;;144.50;16.92;;;;;;;;;;5052663;28;20071;-66
2022/11/29 01:21:20;;;;;;;156.95;18.65;;;8.10;99.90;;;;;;5051632;28;20561;-66
2022/11/29 01:23:47;;;;;;;86.43;16.17;;;8.30;99.90;;;;;;5048117;28;20391;-66
2022/11/29 01:26:16;;;;;;;59.25;15.07;;;8.10;99.90;;;;;;5040912;28;20402;-67
2022/11/29 01:28:44;;;;;;;70.15;16.58;;;8.20;99.90;;;;;;5050447;28;20072;-66
2022/11/29 01:31:12;;;;;;;97.72;15.35;;;8.20;99.90;;;;;;5031584;28;20511;-66
2022/11/29 01:33:39;;;;;;;75.55;15.65;;;8.00;99.90;;;;;;5047257;28;20041;-66
2022/11/29 01:36:06;;;;;;;113.60;16.75;;;8.10;99.90;;;;;;5043557;28;20049;-66
2022/11/29 01:38:32;;;;;;;113.60;17.25;;;8.10;99.90;;;;;;5054661;28;20048;-67
2022/11/29 01:40:59;;;;;;;54.38;14.70;;;8.10;99.90;;;;;;5052739;28;20060;-67
2022/11/29 01:43:25;;;;;;;74.90;15.43;;;8.30;99.90;;;;;;5037010;28;20543;-66
2022/11/29 01:45:51;;;;;;;61.92;16.63;;;8.10;99.90;;;;;;5050426;28;20151;-66
2022/11/29 01:48:17;;;;;;;80.07;16.70;;;8.20;99.90;;;;;;5036363;28;20073;-66
2022/11/29 01:50:43;;;;;;;73.07;16.80;;;8.20;99.90;;;;;;5036377;28;20037;-66
2022/11/29 01:53:12;;;;;;;63.67;16.13;;;8.20;99.90;;;;;;5044446;28;20044;-67
2022/11/29 01:55:44;;;;;;;89.45;17.13;;;8.00;99.90;;;;;;5054221;28;20086;-66
2022/11/29 01:58:10;;;;;;;58.88;16.30;;;8.00;99.90;;;;;;5036555;28;20048;-66
2022/11/29 02:00:36;;;;;;;76.53;15.68;;;8.10;99.90;;;;;;5049594;28;20048;-67
2022/11/29 02:03:12;;;;;;;71.32;16.60;;;8.00;99.90;;;;;;5056113;28;20033;-66
2022/11/29 02:05:41;;;;;;;71.35;16.45;;;8.00;99.90;;;;;;5043194;28;20559;-66
2022/11/29 02:08:10;;;;;;;98.75;18.10;;;8.00;99.90;;;;;;5039162;28;20040;-66
2022/11/29 02:10:56;;;;;;;64.97;16.13;;;7.80;99.90;;;;;;5047875;28;20090;-66
2022/11/29 02:13:40;;;;;;;39.45;13.20;;;8.10;99.90;;;;;;5040868;28;20044;-66
2022/11/29 02:16:16;;;;;;;47.78;13.68;;;7.80;99.90;;;;;;5055342;28;20037;-66
2022/11/29 02:19:18;;;;;;;60.35;13.93;;;7.80;99.90;;;;;;5035875;28;20491;-66
2022/11/29 02:22:01;;;;;;;73.90;15.07;;;7.80;99.90;;;;;;5054874;28;20086;-66
2022/11/29 02:24:58;;;;;;;62.00;14.55;;;7.90;99.90;;;;;;5042455;28;20167;-66
2022/11/29 02:28:00;;;;;;;80.60;14.02;;;8.00;99.90;;;;;;5045561;28;20437;-66
2022/11/29 02:31:03;;;;;;;63.30;14.13;;;7.80;99.90;;;;;;5034469;28;20095;-66
2022/11/29 02:33:59;;;;;;;80.80;15.98;;;7.70;99.90;;;;;;5039061;28;20481;-66
2022/11/29 02:37:03;;;;;;;56.92;14.23;;;7.80;99.90;;;;;;5054206;28;20041;-66
2022/11/29 02:39:56;;;;;;;67.30;14.40;;;7.70;99.90;;;;;;5021380;28;20052;-66
2022/11/29 02:42:48;;;;;;;86.80;15.10;;;7.80;99.90;;;;;;5040975;28;20044;-66
2022/11/29 02:45:30;;;;;;;76.60;16.48;;;7.90;99.90;;;;;;5041245;28;20033;-66
2022/11/29 02:48:14;;;;;;;57.97;14.70;;;7.60;99.90;;;;;;5045593;28;20037;-66
2022/11/29 02:50:48;;;;;;;64.53;15.05;;;7.70;99.90;;;;;;5037483;28;20077;-66
2022/11/29 02:53:40;;;;;;;64.78;15.43;;;7.60;99.90;;;;;;5054198;28;20442;-66
2022/11/29 02:56:27;;;;;;;65.68;15.02;;;7.70;99.90;;;;;;5035120;28;20042;-66
2022/11/29 02:59:20;;;;;;;80.93;14.90;;;7.70;99.90;;;;;;5035216;28;20050;-66
2022/11/29 03:02:14;;;;;;;73.85;15.05;;;7.80;99.90;;;;;;5033795;28;20168;-66
2022/11/29 03:04:52;;;;;;;64.13;16.25;;;7.60;99.90;;;;;;5033810;28;20041;-66
2022/11/29 03:07:47;;;;;;;57.97;15.27;;;7.80;99.90;;;;;;5034982;28;20041;-67
2022/11/29 03:10:38;;;;;;;68.00;15.63;;;7.50;99.90;;;;;;5054048;28;20395;-66
2022/11/29 03:13:16;;;;;;;67.60;15.40;;;7.60;99.90;;;;;;5034923;28;20043;-66
2022/11/29 03:16:05;;;;;;;62.17;15.52;;;;;;;;;;5033455;28;20040;-66
2022/11/29 03:18:59;;;;;;;61.08;14.60;;;7.50;99.90;;;;;;5026908;28;20054;-66
2022/11/29 03:21:51;;;;;;;71.32;15.02;;;7.60;99.90;;;;;;5053979;28;20116;-67
2022/11/29 03:24:35;;;;;;;59.35;15.55;;;7.60;99.90;;;;;;5040642;28;20121;-66
2022/11/29 03:27:25;;;;;;;52.67;15.23;;;7.50;99.90;;;;;;5054619;28;20052;-66
2022/11/29 03:29:57;;;;;;;36.00;12.68;;;7.60;99.90;;;;;;5004274;28;20053;-66
2022/11/29 03:32:56;;;;;;;50.72;14.50;;;7.60;99.90;;;;;;5046195;28;20080;-66
2022/11/29 03:35:33;;;;;;;63.30;15.10;;;7.70;99.90;;;;;;5034501;28;20140;-66
2022/11/29 03:38:14;;;;;;;63.95;14.70;;;7.70;99.90;;;;;;5049949;28;20049;-66
2022/11/29 03:40:48;;;;;;;70.43;16.88;;;7.60;99.90;;;;;;5043627;28;20048;-66
2022/11/29 03:43:25;;;;;;;65.10;15.27;;;7.70;99.90;;;;;;5032974;28;20546;-65
2022/11/29 03:45:57;;;;;;;39.78;13.40;;;7.60;99.90;;;;;;5034222;28;20440;-68
2022/11/29 03:48:26;;;;;;;49.67;14.23;;;7.70;99.90;;;;;;5034220;28;20107;-66
2022/11/29 03:51:04;;;;;;;85.78;16.08;;;7.60;99.90;;;;;;5046839;28;20042;-65
2022/11/29 03:53:46;;;;;;;55.13;14.63;;;7.80;99.90;;;;;;5032962;28;20116;-66
2022/11/29 03:56:31;;;;;;;65.75;16.65;;;7.70;99.90;;;;;;5034089;28;20038;-66
2022/11/29 03:59:23;;;;;;;75.30;17.15;;;7.80;99.90;;;;;;5049021;28;20048;-66
2022/11/29 04:02:01;;;;;;;40.92;15.02;;;7.60;99.90;;;;;;5038825;28;20059;-66
2022/11/29 04:04:44;;;;;;;63.17;16.85;;;7.90;99.90;;;;;;5032632;28;20450;-66
2022/11/29 04:07:36;;;;;;;66.07;16.02;;;7.80;99.90;;;;;;5032576;28;20053;-66
2022/11/29 04:10:04;;;;;;;59.00;15.77;;;7.90;99.90;;;;;;5050374;28;20036;-66
2022/11/29 04:13:07;;;;;;;57.78;17.58;;;7.70;99.90;;;;;;5052504;28;20090;-66
2022/11/29 04:15:58;;;;;;;63.03;16.58;;;8.00;99.90;;;;;;5052601;28;20041;-66
2022/11/29 04:18:50;;;;;;;81.20;17.75;;;7.90;99.90;;;;;;5052369;28;20066;-66
2022/11/29 04:21:31;;;;;;;124.90;18.88;;;8.10;99.90;;;;;;5049419;28;20033;-66
2022/11/29 04:24:35;;;;;;;99.78;16.95;;;8.00;99.90;;;;;;5045687;28;20033;-66
2022/11/29 04:27:27;;;;;;;153.55;19.23;;;7.90;99.90;;;;;;5033538;28;20040;-66
2022/11/29 04:29:53;;;;;;;42.10;14.80;;;7.80;99.90;;;;;;5033497;28;20037;-66
2022/11/29 04:32:56;;;;;;;97.53;19.10;;;7.70;99.90;;;;;;5033438;28;20491;-66
2022/11/29 04:35:47;;;;;;;111.32;17.23;;;7.70;99.90;;;;;;5032005;28;20102;-66
2022/11/29 04:38:16;;;;;;;60.17;15.77;;;7.70;99.90;;;;;;5033432;28;20069;-66
2022/11/29 04:41:06;;;;;;;74.63;16.17;;;7.70;99.90;;;;;;5032152;28;20052;-66
2022/11/29 04:43:56;;;;;;;125.45;18.17;;;7.90;99.90;;;;;;5037241;28;20040;-66
2022/11/29 04:46:46;;;;;;;92.32;16.58;;;7.80;99.90;;;;;;5042143;28;20507;-66
2022/11/29 04:49:42;;;;;;;80.72;15.60;;;7.80;99.90;;;;;;5037732;28;20515;-66
2022/11/29 04:52:33;;;;;;;;;;;7.80;99.90;;;;;;5036353;28;20061;-66
2022/11/29 04:55:33;;;;;;;61.90;14.88;;;7.80;99.90;;;;;;5033103;28;19924;-66
2022/11/29 04:58:14;;;;;;;108.93;16.88;;;7.70;99.90;;;;;;5033382;28;20056;-66
2022/11/29 05:01:01;;;;;;;84.60;14.60;;;7.60;99.90;;;;;;5049535;28;20086;-66
2022/11/29 05:03:38;;;;;;;76.20;15.40;;;7.50;99.90;;;;;;5040446;28;20073;-66
2022/11/29 05:06:15;;;;;;;83.43;16.27;;;7.70;99.90;;;;;;5036476;28;20167;-66
2022/11/29 05:08:47;;;;;;;58.33;15.00;;;7.70;99.90;;;;;;5051273;28;20048;-66
2022/11/29 05:11:44;;;;;;;55.10;14.38;;;7.60;99.90;;;;;;5031993;28;20384;-66
2022/11/29 05:14:23;;;;;;;86.28;13.65;;;7.70;99.90;;;;;;5031651;28;20395;-65
2022/11/29 05:17:08;;;;;;;65.00;14.68;;;7.80;99.90;;;;;;5033038;28;20112;-66
2022/11/29 05:19:52;;;;;;;68.35;14.40;;;7.70;99.90;;;;;;5031761;28;20053;-66
2022/11/29 05:22:47;;;;;;;94.22;13.98;;;7.60;99.90;;;;;;5032866;28;20045;-66
2022/11/29 05:25:30;;;;;;;90.70;14.10;;;;;;;;;;5032932;28;20034;-66
2022/11/29 05:28:09;;;;;;;71.78;12.95;;;7.70;99.90;;;;;;5031737;28;20395;-66
2022/11/29 05:31:10;;;;;;;130.90;17.02;;;7.60;99.90;;;;;;5032878;28;20587;-67
2022/11/29 05:34:19;;;;;;;61.90;13.55;;;7.50;99.90;;;;;;5032897;28;20040;-66
2022/11/29 05:37:19;;;;;;;66.68;13.52;;;7.50;99.90;;;;;;5036887;28;20037;-66
2022/11/29 05:40:09;;;;;;;63.90;12.63;;;7.60;99.90;;;;;;5049360;28;20040;-66
2022/11/29 05:43:05;;;;;;;101.90;14.23;;;7.60;99.90;;;;;;5031699;28;20049;-66
2022/11/29 05:45:47;;;;;;;76.13;12.48;;;7.50;99.90;;;;;;5034687;28;20494;-66
2022/11/29 05:48:30;;;;;;;90.93;13.48;;;7.60;99.90;;;;;;5039117;28;20058;-65
2022/11/29 05:51:10;;;;;;;89.72;13.75;;;7.50;99.90;;;;;;5032707;28;20117;-66
2022/11/29 05:53:53;;;;;;;118.63;13.40;;;7.30;99.90;;;;;;5033047;28;20080;-65
2022/11/29 05:56:39;;;;;;;45.45;11.15;;;7.40;99.90;;;;;;5052384;28;20040;-66
2022/11/29 05:59:14;;;;;;;51.17;11.30;;;7.40;99.90;;;;;;5047664;28;20051;-66
2022/11/29 06:02:10;;;;;;;37.60;10.85;;;7.40;99.90;;;;;;5032636;28;20046;-66
2022/11/29 06:04:38;;;;;;;;;;;7.20;99.90;;;;;;5013706;28;20049;-66
2022/11/29 06:07:21;;;;;;;66.03;12.38;;;7.50;99.90;;;;;;5044203;28;19916;-66
2022/11/29 06:10:16;;;;;;;55.53;12.95;;;7.30;99.90;;;;;;5042077;28;20041;-66
2022/11/29 06:12:47;;;;;;;45.53;11.40;;;7.40;99.90;;;;;;5051093;28;20502;-66
2022/11/29 06:15:34;;;;;;;66.82;13.02;;;7.40;99.90;;;;;;5042172;28;20041;-66
2022/11/29 06:18:00;;;;;;;54.85;11.52;;;7.40;99.90;;;;;;5031003;28;20038;-66
2022/11/29 06:20:31;;;;;;;49.88;11.60;;;7.30;99.90;;;;;;5042104;28;20056;-66
2022/11/29 06:23:27;;;;;;;60.63;12.07;;;7.30;99.90;;;;;;5047121;28;20048;-65
2022/11/29 06:25:59;;;;;;;66.47;12.35;;;7.20;99.90;;;;;;5048227;28;20175;-65
2022/11/29 06:28:42;;;;;;;49.70;12.23;;;7.40;99.90;;;;;;5047481;28;20045;-66
2022/11/29 06:31:15;;;;;;;83.43;13.13;;;;;;;;;;5048677;28;20518;-66
2022/11/29 06:34:08;;;;;;;63.75;12.30;;;7.40;99.90;;;;;;5035644;28;20034;-66
2022/11/29 06:36:49;;;;;;;78.88;13.43;;;7.30;99.90;;;;;;5035475;28;20042;-66
2022/11/29 06:39:15;;;;;;;68.38;12.55;;;7.20;99.90;;;;;;5034402;28;20120;-66
2022/11/29 06:41:41;;;;;;;55.53;12.82;;;7.20;99.90;;;;;;5052326;28;20044;-66
2022/11/29 06:44:07;;;;;;;55.30;12.55;;;7.30;99.90;;;;;;5037451;28;20052;-66
2022/11/29 06:46:36;;;;;;;57.03;12.13;;;7.30;99.90;;;;;;5053798;28;20091;-66
2022/11/29 06:49:10;;;;;;;70.72;12.68;;;7.30;99.90;;;;;;5035246;28;20582;-66
2022/11/29 06:52:03;;;;;;;49.63;13.07;;;7.30;99.90;;;;;;5034612;28;20087;-66
2022/11/29 06:54:43;;;;;;;53.25;12.05;;;7.20;99.90;;;;;;5042549;28;20041;-66
2022/11/29 06:57:18;;;;;;;50.88;12.57;;;7.20;99.90;;;;;;5038310;28;20542;-66
2022/11/29 07:00:08;;;;;;;35.47;12.63;;;7.30;99.90;;;;;;5034125;28;20041;-66
2022/11/29 07:03:13;;;;;;;57.50;13.57;;;7.30;99.90;;;;;;5053108;28;20473;-66
2022/11/29 07:05:39;;;;;;;84.40;16.08;;;7.30;99.90;;;;;;5054997;28;20047;-66
2022/11/29 07:08:12;;;;;;;53.17;14.05;;;7.20;99.90;;;;;;5051006;28;20044;-66
2022/11/29 07:10:39;;;;;;;120.47;16.90;;;7.30;99.90;;;;;;5048919;28;20045;-66
2022/11/29 07:13:05;;;;;;;77.93;15.68;;;7.20;99.90;;;;;;5033808;28;20160;-66
2022/11/29 07:15:31;;;;;;;111.78;16.33;;;7.40;99.90;;;;;;5033704;28;20045;-66
2022/11/29 07:18:28;;;;;;;61.05;15.32;;;7.10;99.90;;;;;;5033405;28;20044;-66
2022/11/29 07:21:05;;;;;;;62.50;14.50;;;7.10;99.90;;;;;;5034738;28;20510;-66
2022/11/29 07:23:34;;;;;;;58.58;14.70;;;7.20;99.90;;;;;;5034710;28;20124;-66
2022/11/29 07:25:59;;;;;;;64.95;14.32;;;7.10;99.90;;;;;;5033546;28;20048;-66
2022/11/29 07:28:44;;;;;;;92.80;17.20;;;7.20;99.90;;;;;;5033378;28;20041;-66
2022/11/29 07:31:22;;;;;;;75.85;15.60;;;7.00;99.90;;;;;;5033170;28;20052;-66
2022/11/29 07:34:12;;;;;;;62.53;17.88;;;7.10;99.90;;;;;;5043869;28;20115;-66
2022/11/29 07:37:02;;;;;;;68.50;16.48;;;7.00;99.90;;;;;;5048168;28;20042;-66
2022/11/29 07:39:41;;;;;;;57.55;15.35;;;7.20;99.90;;;;;;5047350;28;20049;-66
2022/11/29 07:42:16;;;;;;;52.15;15.35;;;7.00;99.90;;;;;;5033175;28;20049;-66
2022/11/29 07:44:52;;;;;;;67.03;15.70;;;;;;;;;;5049223;28;20065;-66
2022/11/29 07:47:18;;;;;;;46.10;15.18;;;7.00;99.90;;;;;;5049497;28;20545;-66
2022/11/29 07:49:44;;;;;;;50.15;15.38;;;6.80;99.90;;;;;;5032908;28;20045;-66
2022/11/29 07:52:14;;;;;;;52.78;16.65;;;7.00;99.90;;;;;;5034192;28;20487;-70
2022/11/29 07:54:40;;;;;;;56.30;15.18;;;7.10;99.90;;;;;;5032778;28;20120;-70
2022/11/29 07:57:06;;;;;;;38.80;15.05;;;;;;;;;;5033299;28;20117;-70
2022/11/29 07:59:31;;;;;;;35.22;13.80;;;7.00;99.90;;;;;;5033790;28;20045;-70
2022/11/29 08:01:58;;;;;;;38.75;12.70;;;;;;;;;;5032419;28;20049;-70
2022/11/29 08:04:24;;;;;;;36.60;12.88;;;;;;;;;;5032811;28;20141;-69
2022/11/29 08:06:49;;;;;;;42.00;13.50;;;7.00;99.90;;;;;;5026746;28;20067;-70
2022/11/29 08:09:15;;;;;;;51.85;12.95;;;7.00;99.90;;;;;;5036427;28;20550;-69
2022/11/29 08:11:41;;;;;;;63.60;13.32;;;7.00;99.90;;;;;;5038056;28;20068;-69
2022/11/29 08:14:07;;;;;;;49.45;13.55;;;7.00;99.90;;;;;;5032555;28;20048;-68
2022/11/29 08:16:33;;;;;;;50.78;13.73;;;6.90;99.90;;;;;;5045847;28;20122;-68
2022/11/29 08:18:59;;;;;;;37.85;14.27;;;6.90;99.90;;;;;;5033748;28;20511;-69
2022/11/29 08:21:24;;;;;;;32.65;11.65;;;7.00;99.90;;;;;;5033589;28;20128;-68
2022/11/29 08:23:51;;;;;;;33.40;13.13;;;;;;;;;;5036498;28;20116;-69
2022/11/29 08:26:18;;;;;;;32.75;13.05;;;6.90;99.90;;;;;;5039705;28;20500;-70
2022/11/29 08:28:44;;;;;;;41.30;14.80;;;;;;;;;;5021801;28;20052;-69
2022/11/29 08:31:11;;;;;;;33.70;13.48;;;7.10;99.90;;;;;;5033540;28;20041;-69
2022/11/29 08:33:39;;;;;;;38.10;13.32;;;7.00;99.90;;;;;;5033263;28;20116;-69
2022/11/29 08:36:11;;;;;;;36.17;13.02;;;7.00;99.90;;;;;;5038533;28;20049;-69
2022/11/29 08:38:37;;;;;;;26.33;12.05;;;;;;;;;;5032049;28;20073;-69
2022/11/29 08:41:04;;;;;;;41.47;13.63;;;7.00;99.90;;;;;;5032052;28;20076;-69
2022/11/29 08:43:30;;;;;;;29.75;12.02;;;;;;;;;;5033215;28;20052;-70
2022/11/29 08:45:57;;;;;;;26.40;11.13;;;7.00;99.90;;;;;;5047237;28;20117;-69
2022/11/29 08:48:23;;;;;;;29.65;12.13;;;7.20;99.90;;;;;;5043481;28;20038;-69
2022/11/29 08:50:50;;;;;;;26.73;12.13;;;;;;;;;;5033140;28;20041;-69
2022/11/29 08:56:00;;;;;;;22.70;10.55;;;7.10;99.90;;;;;;5031682;28;20079;-69
2022/11/29 08:58:25;;;;;;;26.20;11.88;;;7.10;99.90;;;;;;5033094;28;20033;-68
2022/11/29 09:00:52;;;;;;;25.02;12.25;;;7.10;99.90;;;;;;5033499;28;20033;-68
2022/11/29 09:06:06;;;;;;;21.30;10.98;;;;;;;;;;5031606;28;20045;-68
2022/11/29 09:08:31;;;;;;;22.05;10.55;;;7.20;99.90;;;;;;5034936;28;20080;-68
2022/11/29 09:10:57;;;;;;;24.40;10.60;;;7.30;99.90;;;;;;5031735;28;20077;-69
2022/11/29 09:13:22;;;;;;;21.90;10.68;;;7.30;99.90;;;;;;5032886;28;20037;-69
2022/11/29 09:15:48;;;;;;;22.45;11.13;;;7.30;99.90;;;;;;5031387;28;20041;-68
2022/11/29 09:18:14;;;;;;;26.05;10.65;;;7.30;99.90;;;;;;5031633;28;20072;-68
2022/11/29 09:20:42;;;;;;;25.40;10.90;;;7.30;99.90;;;;;;5031671;28;20029;-69
2022/11/29 09:23:09;;;;;;;22.85;11.20;;;7.30;99.90;;;;;;5031647;28;20124;-68
2022/11/29 09:25:35;;;;;;;27.05;10.30;;;7.30;99.90;;;;;;5031573;28;20106;-69
2022/11/29 09:28:01;;;;;;;24.73;10.52;;;7.40;99.90;;;;;;5032779;28;20483;-69
2022/11/29 09:30:30;;;;;;;23.27;9.63;;;7.50;99.90;;;;;;5031107;28;20065;-68
2022/11/29 09:33:01;;;;;;;19.80;9.95;;;7.50;99.90;;;;;;5031293;28;20068;-68
2022/11/29 09:35:27;;;;;;;20.67;10.27;;;7.50;99.90;;;;;;5032473;28;20095;-69
2022/11/29 09:37:53;;;;;;;20.15;10.40;;;;;;;;;;5032556;28;20067;-68
2022/11/29 09:40:24;;;;;;;22.88;10.48;;;7.50;99.90;;;;;;5032088;28;20124;-69
2022/11/29 09:43:05;;;;;;;21.83;10.25;;;7.60;99.90;;;;;;5032764;28;20079;-69
2022/11/29 09:45:36;;;;;;;26.05;10.73;;;7.80;99.90;;;;;;5033390;28;20049;-69
2022/11/29 09:48:39;;;;;;;20.45;9.50;;;7.40;99.90;;;;;;5049643;28;20060;-69
2022/11/29 09:51:15;;;;;;;19.13;10.48;;;7.60;99.90;;;;;;5050365;28;20045;-69
2022/11/29 09:54:10;;;;;;;17.33;10.13;;;7.50;99.90;;;;;;5045805;28;20400;-69
2022/11/29 09:56:43;;;;;;;16.88;9.30;;;7.70;99.90;;;;;;5047892;28;20052;-69
2022/11/29 09:59:28;;;;;;;21.52;9.60;;;;;;;;;;5050053;28;20112;-70
2022/11/29 10:02:02;;;;;;;20.55;9.63;;;7.80;99.90;;;;;;5050177;28;20044;-70
2022/11/29 10:04:39;;;;;;;18.75;9.45;;;7.70;99.90;;;;;;5049228;28;20116;-70
2022/11/29 10:07:28;;;;;;;22.70;9.52;;;7.80;99.90;;;;;;5052518;28;20127;-67
2022/11/29 10:10:01;;;;;;;20.48;10.13;;;7.60;99.90;;;;;;5046096;28;20080;-67
2022/11/29 10:12:33;;;;;;;20.38;8.90;;;7.70;99.90;;;;;;5035936;28;20041;-67
2022/11/29 10:15:07;;;;;;;20.85;9.18;;;7.70;99.90;;;;;;5035780;28;20404;-67
2022/11/29 10:17:37;;;;;;;18.10;9.48;;;7.70;99.90;;;;;;5046009;28;20087;-67
2022/11/29 10:20:22;;;;;;;21.48;8.60;;;7.40;99.90;;;;;;5050418;28;20399;-67
2022/11/29 10:22:56;;;;;;;21.42;9.50;;;7.70;99.90;;;;;;5041459;28;20049;-66
2022/11/29 10:25:31;;;;;;;18.20;8.50;;;;;;;;;;5035688;28;20442;-67
2022/11/29 10:27:57;;;;;;;21.55;8.18;;;;;;;;;;5044739;28;20052;-67
2022/11/29 10:30:22;;;;;;;18.58;8.18;;;7.80;99.90;;;;;;5036111;28;20411;-67
2022/11/29 10:32:55;;;;;;;20.00;8.52;;;7.90;99.90;;;;;;5041104;28;20044;-67
2022/11/29 10:35:21;;;;;;;15.38;8.10;;;8.10;99.90;;;;;;5037324;28;20087;-67
2022/11/29 10:37:50;;;;;;;17.00;7.40;;;8.30;99.90;;;;;;5034476;28;20037;-67
2022/11/29 10:40:32;;;;;;;18.30;8.27;;;8.30;99.90;;;;;;5046804;28;20457;-67
2022/11/29 10:42:58;;;;;;;17.33;7.70;;;8.10;99.90;;;;;;5035755;28;20049;-68
2022/11/29 10:45:42;;;;;;;21.25;8.82;;;8.30;99.90;;;;;;5036906;28;20045;-66
2022/11/29 10:48:10;;;;;;;18.45;7.20;;;8.30;99.90;;;;;;5053929;28;20071;-68
2022/11/29 10:50:38;;;;;;;18.88;8.18;;;8.30;99.90;;;;;;5051739;28;20053;-68
2022/11/29 10:53:15;;;;;;;16.95;8.63;;;8.20;99.90;;;;;;5045212;28;20033;-67
2022/11/29 10:55:49;;;;;;;25.65;7.88;;;;;;;;;;5053797;28;20052;-69
2022/11/29 10:58:18;;;;;;;17.10;8.27;;;8.60;99.90;;;;;;5055096;28;20047;-68
2022/11/29 11:00:50;;;;;;;21.48;9.77;;;8.50;99.90;;;;;;5052067;28;20029;-67
2022/11/29 11:03:50;;;;;;;23.83;8.57;;;8.60;99.90;;;;;;5043901;28;20040;-68
2022/11/29 11:06:18;;;;;;;20.73;8.38;;;8.90;99.90;;;;;;5053560;28;20059;-69
2022/11/29 11:08:53;;;;;;;13.00;7.43;;;9.20;99.90;;;;;;5045804;28;20037;-69
2022/11/29 11:11:31;;;;;;;20.70;9.43;;;9.20;99.90;;;;;;5038982;28;20511;-69
2022/11/29 11:14:03;;;;;;;19.77;8.40;;;9.20;99.90;;;;;;5053584;28;20044;-68
2022/11/29 11:16:29;;;;;;;27.67;9.05;;;9.20;99.90;;;;;;5056784;28;20068;-68
2022/11/29 11:18:55;;;;;;;18.83;9.45;;;9.10;99.90;;;;;;5054665;28;20044;-68
2022/11/29 11:21:24;;;;;;;21.08;9.75;;;9.00;99.90;;;;;;5052544;28;20045;-69
2022/11/29 11:23:58;;;;;;;20.10;10.70;;;9.20;99.90;;;;;;5041921;28;20519;-68
2022/11/29 11:26:25;;;;;;;24.83;9.93;;;9.20;99.90;;;;;;5033561;28;20431;-68
2022/11/29 11:29:01;;;;;;;28.77;10.55;;;9.20;99.90;;;;;;5044259;28;20103;-68
2022/11/29 11:31:33;;;;;;;23.55;9.48;;;9.10;99.90;;;;;;5036660;28;20044;-68
2022/11/29 11:34:28;;;;;;;21.65;9.57;;;9.30;99.90;;;;;;5033685;28;20045;-68
2022/11/29 11:37:13;;;;;;;19.35;9.30;;;9.30;99.90;;;;;;5053080;28;20050;-68
2022/11/29 11:39:39;;;;;;;17.92;9.07;;;9.10;99.90;;;;;;5032836;28;20519;-68
2022/11/29 11:44:56;;;;;;;22.38;9.50;;;9.10;99.90;;;;;;5042933;28;20492;-68
2022/11/29 11:47:25;;;;;;;20.27;9.50;;;9.00;99.90;;;;;;5039971;28;20053;-68
2022/11/29 11:50:03;;;;;;;23.30;10.40;;;9.20;99.90;;;;;;5032174;28;20115;-68
2022/11/29 11:52:43;;;;;;;31.20;9.48;;;9.20;99.90;;;;;;5034813;28;20040;-66
2022/11/29 11:55:21;;;;;;;21.35;9.30;;;9.10;99.90;;;;;;5039220;28;20041;-66
2022/11/29 11:58:15;;;;;;;23.15;8.93;;;9.30;99.90;;;;;;5032029;28;20037;-67
2022/11/29 12:00:54;;;;;;;18.55;9.35;;;9.20;99.90;;;;;;5025284;28;20049;-66
2022/11/29 12:03:22;;;;;;;25.85;10.13;;;9.10;99.90;;;;;;5062660;28;20482;-67
2022/11/29 12:05:50;;;;;;;19.42;8.75;;;9.30;99.90;;;;;;5038861;28;20044;-67
2022/11/29 12:08:16;;;;;;;21.95;8.75;;;9.20;99.90;;;;;;5046734;28;20045;-68
2022/11/29 12:10:42;;;;;;;28.02;9.77;;;9.10;99.90;;;;;;5036027;28;20041;-67
2022/11/29 12:13:19;;;;;;;19.10;8.05;;;9.20;99.90;;;;;;5033600;28;20380;-67
2022/11/29 12:15:48;;;;;;;25.30;8.43;;;9.20;99.90;;;;;;5034700;28;20041;-67
2022/11/29 12:18:24;;;;;;;29.13;9.32;;;9.20;99.90;;;;;;5037630;28;20036;-67
2022/11/29 12:20:53;;;;;;;20.55;8.55;;;9.10;99.90;;;;;;5038662;28;20037;-67
2022/11/29 12:23:29;;;;;;;23.15;9.35;;;9.20;99.90;;;;;;5038515;28;20037;-67
2022/11/29 12:26:01;;;;;;;25.17;7.85;;;9.10;99.90;;;;;;5041055;28;20044;-67
2022/11/29 12:28:30;;;;;;;24.58;8.95;;;9.30;99.90;;;;;;5036947;28;20503;-67
2022/11/29 12:31:20;;;;;;;19.20;8.25;;;9.20;99.90;;;;;;5035628;28;20070;-67
2022/11/29 12:33:58;;;;;;;23.88;7.88;;;9.30;99.90;;;;;;5042165;28;20069;-68
2022/11/29 12:36:54;;;;;;;21.80;9.27;;;9.40;99.90;;;;;;5047609;28;20040;-67
2022/11/29 12:39:34;;;;;;;27.08;8.77;;;9.30;99.90;;;;;;5051244;28;20052;-68
2022/11/29 12:42:12;;;;;;;29.38;9.75;;;9.20;99.90;;;;;;5044909;28;20041;-66
2022/11/29 12:44:40;;;;;;;27.30;9.35;;;9.30;99.90;;;;;;5029771;28;20055;-66
2022/11/29 12:47:34;;;;;;;24.63;9.07;;;9.30;99.90;;;;;;5052765;28;20061;-67
2022/11/29 12:50:28;;;;;;;23.88;9.35;;;9.40;99.90;;;;;;5052662;28;20567;-66
2022/11/29 12:53:16;;;;;;;24.73;9.00;;;9.40;99.90;;;;;;5053181;28;20047;-66
2022/11/29 12:56:04;;;;;;;23.45;8.90;;;9.30;99.90;;;;;;5052841;28;20411;-67
2022/11/29 12:59:08;;;;;;;24.13;9.68;;;9.20;99.90;;;;;;5052822;28;20515;-66
2022/11/29 13:02:01;;;;;;;20.48;8.32;;;9.50;99.90;;;;;;5042518;28;20089;-65
2022/11/29 13:04:38;;;;;;;27.75;10.80;;;9.50;99.90;;;;;;5051133;28;20073;-66
2022/11/29 13:07:14;;;;;;;23.60;8.73;;;9.60;99.90;;;;;;5039668;28;20446;-66
2022/11/29 13:10:04;;;;;;;38.20;9.48;;;9.60;99.90;;;;;;5047263;28;20045;-67
2022/11/29 13:13:01;;;;;;;22.48;8.45;;;9.50;99.90;;;;;;5052600;28;20092;-67
2022/11/29 13:15:45;;;;;;;27.50;9.77;;;9.60;99.90;;;;;;5067605;28;20045;-70
2022/11/29 13:18:30;;;;;;;22.98;9.57;;;9.60;99.90;;;;;;5052047;28;20124;-67
2022/11/29 13:21:10;;;;;;;;;;;9.60;99.90;;;;;;5047969;28;20041;-67
2022/11/29 13:23:48;;;;;;;20.80;8.85;;;9.70;99.90;;;;;;5051609;28;19967;-69
2022/11/29 13:26:15;;;;;;;23.35;8.57;;;9.80;99.90;;;;;;5052342;28;20091;-69
2022/11/29 13:28:43;;;;;;;28.40;9.60;;;10.00;99.90;;;;;;5052427;28;20037;-68
2022/11/29 13:31:14;;;;;;;23.88;9.32;;;9.90;99.90;;;;;;5052301;28;20038;-69
2022/11/29 13:33:52;;;;;;;27.73;10.05;;;9.70;99.90;;;;;;5054259;28;20040;-69
2022/11/29 13:36:41;;;;;;;22.58;10.30;;;9.90;99.90;;;;;;5042423;28;20041;-68
2022/11/29 13:39:40;;;;;;;25.08;9.30;;;9.80;99.90;;;;;;5055327;28;20049;-68
2022/11/29 13:42:36;;;;;;;24.17;10.13;;;9.70;99.90;;;;;;5056479;28;20048;-69